Allentown, Arizona
Current Conditions -  °F | °C
As of 8:53 PM on Tuesday 25 Nov 2014 (Local Time) from KGUP Reporting Station
Clear Clear  
Wind Chill:   Ceiling: Unl
Heat Index:   Visibility: 10mi
Dew Point: -18°   Wind: 3mph
Humidity: 23%   Direction: NA
Pressure: 30.38"   Gusts: NA
Location:  35.2918°N, 109.157°W
Report Text: KGUP 260353Z AUTO VRB03KT 10SM CLR 01/M18 A3038 RMK AO2 SLP324 T00061183
Loading
Personal Weather Stations






























Interactive Weather Map New forecast layout! Learn more

10-Day Weather Forecast

Advertisements
Track Severe Weather on mobile